sensor_id;sensor_type;location;lat;lon;timestamp;temperature;humidity
10415;DHT22;5254;47.696;9.138;2022-08-19T00:01:39;18.90;99.90
10415;DHT22;5254;47.696;9.138;2022-08-19T00:04:09;18.90;99.90
10415;DHT22;5254;47.696;9.138;2022-08-19T00:06:37;18.90;99.90
10415;DHT22;5254;47.696;9.138;2022-08-19T00:09:06;18.90;99.90
10415;DHT22;5254;47.696;9.138;2022-08-19T00:11:33;19.00;99.90
10415;DHT22;5254;47.696;9.138;2022-08-19T00:14:00;19.00;99.90
10415;DHT22;5254;47.696;9.138;2022-08-19T00:16:26;19.00;99.90
10415;DHT22;5254;47.696;9.138;2022-08-19T00:18:51;19.00;99.90
10415;DHT22;5254;47.696;9.138;2022-08-19T00:21:17;19.00;99.90
10415;DHT22;5254;47.696;9.138;2022-08-19T00:23:43;19.00;99.90
10415;DHT22;5254;47.696;9.138;2022-08-19T00:26:10;19.00;99.90
10415;DHT22;5254;47.696;9.138;2022-08-19T00:28:36;19.00;99.90
10415;DHT22;5254;47.696;9.138;2022-08-19T00:31:04;19.00;99.90
10415;DHT22;5254;47.696;9.138;2022-08-19T00:33:30;19.00;99.90
10415;DHT22;5254;47.696;9.138;2022-08-19T00:35:58;19.00;99.90
10415;DHT22;5254;47.696;9.138;2022-08-19T00:38:25;19.00;99.90
10415;DHT22;5254;47.696;9.138;2022-08-19T00:40:51;19.00;99.90
10415;DHT22;5254;47.696;9.138;2022-08-19T00:43:20;19.00;99.90
10415;DHT22;5254;47.696;9.138;2022-08-19T00:45:46;19.10;99.90
10415;DHT22;5254;47.696;9.138;2022-08-19T00:48:13;19.10;99.90
10415;DHT22;5254;47.696;9.138;2022-08-19T00:50:41;19.10;99.90
10415;DHT22;5254;47.696;9.138;2022-08-19T00:53:13;19.10;99.90
10415;DHT22;5254;47.696;9.138;2022-08-19T00:55:42;19.10;99.90
10415;DHT22;5254;47.696;9.138;2022-08-19T00:58:13;19.20;99.90
10415;DHT22;5254;47.696;9.138;2022-08-19T01:00:39;19.20;99.90
10415;DHT22;5254;47.696;9.138;2022-08-19T01:03:09;19.20;99.90
10415;DHT22;5254;47.696;9.138;2022-08-19T01:05:35;19.20;99.90
10415;DHT22;5254;47.696;9.138;2022-08-19T01:08:05;19.20;99.90
10415;DHT22;5254;47.696;9.138;2022-08-19T01:10:35;19.20;99.90
10415;DHT22;5254;47.696;9.138;2022-08-19T01:13:03;19.20;99.90
10415;DHT22;5254;47.696;9.138;2022-08-19T01:15:32;19.20;99.90
10415;DHT22;5254;47.696;9.138;2022-08-19T01:18:02;19.20;99.90
10415;DHT22;5254;47.696;9.138;2022-08-19T01:20:29;19.10;99.90
10415;DHT22;5254;47.696;9.138;2022-08-19T01:22:58;19.20;99.90
10415;DHT22;5254;47.696;9.138;2022-08-19T01:25:31;19.10;99.90
10415;DHT22;5254;47.696;9.138;2022-08-19T01:27:58;19.10;99.90
10415;DHT22;5254;47.696;9.138;2022-08-19T01:30:30;19.10;99.90
10415;DHT22;5254;47.696;9.138;2022-08-19T01:32:57;19.10;99.90
10415;DHT22;5254;47.696;9.138;2022-08-19T01:35:26;19.10;99.90
10415;DHT22;5254;47.696;9.138;2022-08-19T01:37:57;19.10;99.90
10415;DHT22;5254;47.696;9.138;2022-08-19T01:40:26;19.10;99.90
10415;DHT22;5254;47.696;9.138;2022-08-19T01:42:53;19.10;99.90
10415;DHT22;5254;47.696;9.138;2022-08-19T01:45:21;19.10;99.90
10415;DHT22;5254;47.696;9.138;2022-08-19T01:47:47;19.10;99.90
10415;DHT22;5254;47.696;9.138;2022-08-19T01:50:13;19.10;99.90
10415;DHT22;5254;47.696;9.138;2022-08-19T01:52:41;19.10;99.90
10415;DHT22;5254;47.696;9.138;2022-08-19T01:57:35;19.10;99.90
10415;DHT22;5254;47.696;9.138;2022-08-19T02:00:04;19.10;99.90
10415;DHT22;5254;47.696;9.138;2022-08-19T02:02:31;19.10;99.90
10415;DHT22;5254;47.696;9.138;2022-08-19T02:04:56;19.10;99.90
10415;DHT22;5254;47.696;9.138;2022-08-19T02:07:23;19.10;99.90
10415;DHT22;5254;47.696;9.138;2022-08-19T02:09:48;19.10;99.90
10415;DHT22;5254;47.696;9.138;2022-08-19T02:12:14;19.10;99.90
10415;DHT22;5254;47.696;9.138;2022-08-19T02:14:41;19.10;99.90
10415;DHT22;5254;47.696;9.138;2022-08-19T02:17:07;19.10;99.90
10415;DHT22;5254;47.696;9.138;2022-08-19T02:19:33;19.10;99.90
10415;DHT22;5254;47.696;9.138;2022-08-19T02:21:59;19.10;99.90
10415;DHT22;5254;47.696;9.138;2022-08-19T02:24:26;19.10;99.90
10415;DHT22;5254;47.696;9.138;2022-08-19T02:26:52;19.10;99.90
10415;DHT22;5254;47.696;9.138;2022-08-19T02:29:18;19.10;99.90
10415;DHT22;5254;47.696;9.138;2022-08-19T02:31:44;19.10;99.90
10415;DHT22;5254;47.696;9.138;2022-08-19T02:34:09;19.10;99.90
10415;DHT22;5254;47.696;9.138;2022-08-19T02:36:35;19.20;99.90
10415;DHT22;5254;47.696;9.138;2022-08-19T02:39:01;19.20;99.90
10415;DHT22;5254;47.696;9.138;2022-08-19T02:41:29;19.20;99.90
10415;DHT22;5254;47.696;9.138;2022-08-19T02:43:56;19.20;99.90
10415;DHT22;5254;47.696;9.138;2022-08-19T02:46:29;19.20;99.90
10415;DHT22;5254;47.696;9.138;2022-08-19T02:48:58;19.20;99.90
10415;DHT22;5254;47.696;9.138;2022-08-19T02:51:30;19.20;99.90
10415;DHT22;5254;47.696;9.138;2022-08-19T02:53:56;19.20;99.90
10415;DHT22;5254;47.696;9.138;2022-08-19T02:56:22;19.20;99.90
10415;DHT22;5254;47.696;9.138;2022-08-19T02:58:49;19.20;99.90
10415;DHT22;5254;47.696;9.138;2022-08-19T03:01:23;19.20;99.90
10415;DHT22;5254;47.696;9.138;2022-08-19T03:03:49;19.20;99.90
10415;DHT22;5254;47.696;9.138;2022-08-19T03:06:15;19.20;99.90
10415;DHT22;5254;47.696;9.138;2022-08-19T03:08:43;19.20;99.90
10415;DHT22;5254;47.696;9.138;2022-08-19T03:11:25;19.20;99.90
10415;DHT22;5254;47.696;9.138;2022-08-19T03:13:51;19.20;99.90
10415;DHT22;5254;47.696;9.138;2022-08-19T03:16:18;19.20;99.90
10415;DHT22;5254;47.696;9.138;2022-08-19T03:18:44;19.20;99.90
10415;DHT22;5254;47.696;9.138;2022-08-19T03:21:15;19.20;99.90
10415;DHT22;5254;47.696;9.138;2022-08-19T03:23:41;19.30;99.90
10415;DHT22;5254;47.696;9.138;2022-08-19T03:26:07;19.30;99.90
10415;DHT22;5254;47.696;9.138;2022-08-19T03:28:33;19.30;99.90
10415;DHT22;5254;47.696;9.138;2022-08-19T03:31:02;19.20;99.90
10415;DHT22;5254;47.696;9.138;2022-08-19T03:33:29;19.30;99.90
10415;DHT22;5254;47.696;9.138;2022-08-19T03:36:22;19.30;99.90
10415;DHT22;5254;47.696;9.138;2022-08-19T03:38:54;19.30;99.90
10415;DHT22;5254;47.696;9.138;2022-08-19T03:41:24;19.20;99.90
10415;DHT22;5254;47.696;9.138;2022-08-19T03:43:50;19.20;99.90
10415;DHT22;5254;47.696;9.138;2022-08-19T03:46:19;19.20;99.90
10415;DHT22;5254;47.696;9.138;2022-08-19T03:48:50;19.20;99.90
10415;DHT22;5254;47.696;9.138;2022-08-19T03:51:26;19.30;99.90
10415;DHT22;5254;47.696;9.138;2022-08-19T03:53:54;19.20;99.90
10415;DHT22;5254;47.696;9.138;2022-08-19T03:56:20;19.20;99.90
10415;DHT22;5254;47.696;9.138;2022-08-19T03:58:46;19.20;99.90
10415;DHT22;5254;47.696;9.138;2022-08-19T04:01:15;19.20;99.90
10415;DHT22;5254;47.696;9.138;2022-08-19T04:03:41;19.20;99.90
10415;DHT22;5254;47.696;9.138;2022-08-19T04:08:44;19.20;99.90
10415;DHT22;5254;47.696;9.138;2022-08-19T04:11:12;19.10;99.90
10415;DHT22;5254;47.696;9.138;2022-08-19T04:13:38;19.10;99.90
10415;DHT22;5254;47.696;9.138;2022-08-19T04:16:05;19.10;99.90
10415;DHT22;5254;47.696;9.138;2022-08-19T04:18:33;19.10;99.90
10415;DHT22;5254;47.696;9.138;2022-08-19T04:20:59;19.10;99.90
10415;DHT22;5254;47.696;9.138;2022-08-19T04:23:25;19.10;99.90
10415;DHT22;5254;47.696;9.138;2022-08-19T04:25:52;19.00;99.90
10415;DHT22;5254;47.696;9.138;2022-08-19T04:28:18;19.00;99.90
10415;DHT22;5254;47.696;9.138;2022-08-19T04:30:47;19.00;99.90
10415;DHT22;5254;47.696;9.138;2022-08-19T04:33:15;19.00;99.90
10415;DHT22;5254;47.696;9.138;2022-08-19T04:35:43;19.00;99.90
10415;DHT22;5254;47.696;9.138;2022-08-19T04:38:10;19.00;99.90
10415;DHT22;5254;47.696;9.138;2022-08-19T04:40:45;19.00;99.90
10415;DHT22;5254;47.696;9.138;2022-08-19T04:43:29;19.00;99.90
10415;DHT22;5254;47.696;9.138;2022-08-19T04:45:55;19.00;99.90
10415;DHT22;5254;47.696;9.138;2022-08-19T04:48:21;19.00;99.90
10415;DHT22;5254;47.696;9.138;2022-08-19T04:50:55;19.00;99.90
10415;DHT22;5254;47.696;9.138;2022-08-19T04:53:31;19.00;99.90
10415;DHT22;5254;47.696;9.138;2022-08-19T04:55:58;19.00;99.90
10415;DHT22;5254;47.696;9.138;2022-08-19T04:58:28;19.00;99.90
10415;DHT22;5254;47.696;9.138;2022-08-19T05:00:54;18.90;99.90
10415;DHT22;5254;47.696;9.138;2022-08-19T05:03:20;19.00;99.90
10415;DHT22;5254;47.696;9.138;2022-08-19T05:05:47;18.90;99.90
10415;DHT22;5254;47.696;9.138;2022-08-19T05:08:16;18.90;99.90
10415;DHT22;5254;47.696;9.138;2022-08-19T05:10:50;18.90;99.90
10415;DHT22;5254;47.696;9.138;2022-08-19T05:13:18;18.90;99.90
10415;DHT22;5254;47.696;9.138;2022-08-19T05:15:45;18.80;99.90
10415;DHT22;5254;47.696;9.138;2022-08-19T05:18:18;18.80;99.90
10415;DHT22;5254;47.696;9.138;2022-08-19T05:21:07;18.80;99.90
10415;DHT22;5254;47.696;9.138;2022-08-19T05:23:51;18.80;99.90
10415;DHT22;5254;47.696;9.138;2022-08-19T05:26:17;18.70;99.90
10415;DHT22;5254;47.696;9.138;2022-08-19T05:28:43;18.70;99.90
10415;DHT22;5254;47.696;9.138;2022-08-19T05:31:08;18.70;99.90
10415;DHT22;5254;47.696;9.138;2022-08-19T05:33:34;18.70;99.90
10415;DHT22;5254;47.696;9.138;2022-08-19T05:36:02;18.70;99.90
10415;DHT22;5254;47.696;9.138;2022-08-19T05:38:28;18.70;99.90
10415;DHT22;5254;47.696;9.138;2022-08-19T05:40:55;18.70;99.90
10415;DHT22;5254;47.696;9.138;2022-08-19T05:43:21;18.70;99.90
10415;DHT22;5254;47.696;9.138;2022-08-19T05:45:46;18.70;99.90
10415;DHT22;5254;47.696;9.138;2022-08-19T05:48:13;18.80;99.90
10415;DHT22;5254;47.696;9.138;2022-08-19T05:50:40;18.80;99.90
10415;DHT22;5254;47.696;9.138;2022-08-19T05:53:06;18.80;99.90
10415;DHT22;5254;47.696;9.138;2022-08-19T05:55:34;18.80;99.90
10415;DHT22;5254;47.696;9.138;2022-08-19T05:58:00;18.80;99.90
10415;DHT22;5254;47.696;9.138;2022-08-19T06:00:27;18.80;99.90
10415;DHT22;5254;47.696;9.138;2022-08-19T06:02:53;18.80;99.90
10415;DHT22;5254;47.696;9.138;2022-08-19T06:05:27;18.80;99.90
10415;DHT22;5254;47.696;9.138;2022-08-19T06:07:53;18.80;99.90
10415;DHT22;5254;47.696;9.138;2022-08-19T06:10:19;18.80;99.90
10415;DHT22;5254;47.696;9.138;2022-08-19T06:12:47;18.70;99.90
10415;DHT22;5254;47.696;9.138;2022-08-19T06:15:13;18.70;99.90
10415;DHT22;5254;47.696;9.138;2022-08-19T06:17:40;18.70;99.90
10415;DHT22;5254;47.696;9.138;2022-08-19T06:20:09;18.80;99.90
10415;DHT22;5254;47.696;9.138;2022-08-19T06:22:39;18.80;99.90
10415;DHT22;5254;47.696;9.138;2022-08-19T06:25:05;18.80;99.90
10415;DHT22;5254;47.696;9.138;2022-08-19T06:27:31;18.80;99.90
10415;DHT22;5254;47.696;9.138;2022-08-19T06:29:58;18.80;99.90
10415;DHT22;5254;47.696;9.138;2022-08-19T06:32:24;18.80;99.90
10415;DHT22;5254;47.696;9.138;2022-08-19T06:34:49;18.90;99.90
10415;DHT22;5254;47.696;9.138;2022-08-19T06:37:15;18.90;99.90
10415;DHT22;5254;47.696;9.138;2022-08-19T06:39:43;18.90;99.90
10415;DHT22;5254;47.696;9.138;2022-08-19T06:42:10;18.90;99.90
10415;DHT22;5254;47.696;9.138;2022-08-19T06:44:43;19.00;99.90
10415;DHT22;5254;47.696;9.138;2022-08-19T06:47:11;19.00;99.90
10415;DHT22;5254;47.696;9.138;2022-08-19T06:49:38;18.90;99.90
10415;DHT22;5254;47.696;9.138;2022-08-19T06:52:05;19.00;99.90
10415;DHT22;5254;47.696;9.138;2022-08-19T06:54:31;19.00;99.90
10415;DHT22;5254;47.696;9.138;2022-08-19T06:56:58;19.00;99.90
10415;DHT22;5254;47.696;9.138;2022-08-19T06:59:25;19.00;99.90
10415;DHT22;5254;47.696;9.138;2022-08-19T07:01:55;19.00;99.90
10415;DHT22;5254;47.696;9.138;2022-08-19T07:04:25;19.00;99.90
10415;DHT22;5254;47.696;9.138;2022-08-19T07:07:04;19.00;99.90
10415;DHT22;5254;47.696;9.138;2022-08-19T07:09:34;19.00;99.90
10415;DHT22;5254;47.696;9.138;2022-08-19T07:12:04;19.00;99.90
10415;DHT22;5254;47.696;9.138;2022-08-19T07:14:29;19.00;99.90
10415;DHT22;5254;47.696;9.138;2022-08-19T07:16:56;18.90;99.90
10415;DHT22;5254;47.696;9.138;2022-08-19T07:19:25;18.90;99.90
10415;DHT22;5254;47.696;9.138;2022-08-19T07:21:52;18.90;99.90
10415;DHT22;5254;47.696;9.138;2022-08-19T07:24:19;18.80;99.90
10415;DHT22;5254;47.696;9.138;2022-08-19T07:26:46;18.80;99.90
10415;DHT22;5254;47.696;9.138;2022-08-19T07:29:12;18.80;99.90
10415;DHT22;5254;47.696;9.138;2022-08-19T07:31:38;18.80;99.90
10415;DHT22;5254;47.696;9.138;2022-08-19T07:34:06;18.80;99.90
10415;DHT22;5254;47.696;9.138;2022-08-19T07:36:34;18.80;99.90
10415;DHT22;5254;47.696;9.138;2022-08-19T07:39:05;18.80;99.90
10415;DHT22;5254;47.696;9.138;2022-08-19T07:41:31;18.80;99.90
10415;DHT22;5254;47.696;9.138;2022-08-19T07:43:58;18.80;99.90
10415;DHT22;5254;47.696;9.138;2022-08-19T07:46:31;18.80;99.90
10415;DHT22;5254;47.696;9.138;2022-08-19T07:48:58;18.80;99.90
10415;DHT22;5254;47.696;9.138;2022-08-19T07:51:26;18.80;99.90
10415;DHT22;5254;47.696;9.138;2022-08-19T07:53:52;18.80;99.90
10415;DHT22;5254;47.696;9.138;2022-08-19T07:56:21;18.90;99.90
10415;DHT22;5254;47.696;9.138;2022-08-19T07:58:49;18.80;99.90
10415;DHT22;5254;47.696;9.138;2022-08-19T08:01:22;18.90;99.90
10415;DHT22;5254;47.696;9.138;2022-08-19T08:03:51;18.90;99.90
10415;DHT22;5254;47.696;9.138;2022-08-19T08:06:36;18.90;99.90
10415;DHT22;5254;47.696;9.138;2022-08-19T08:09:29;18.90;99.90
10415;DHT22;5254;47.696;9.138;2022-08-19T08:12:15;18.90;99.90
10415;DHT22;5254;47.696;9.138;2022-08-19T08:14:51;18.90;99.90
10415;DHT22;5254;47.696;9.138;2022-08-19T08:17:21;18.90;99.90
10415;DHT22;5254;47.696;9.138;2022-08-19T08:19:48;18.90;99.90
10415;DHT22;5254;47.696;9.138;2022-08-19T08:22:18;18.90;99.90
10415;DHT22;5254;47.696;9.138;2022-08-19T08:25:13;18.90;99.90
10415;DHT22;5254;47.696;9.138;2022-08-19T08:27:41;19.00;99.90
10415;DHT22;5254;47.696;9.138;2022-08-19T08:30:09;19.00;99.90
10415;DHT22;5254;47.696;9.138;2022-08-19T08:32:39;19.00;99.90
10415;DHT22;5254;47.696;9.138;2022-08-19T08:35:08;19.00;99.90
10415;DHT22;5254;47.696;9.138;2022-08-19T08:37:34;19.00;99.90
10415;DHT22;5254;47.696;9.138;2022-08-19T08:40:06;19.00;99.90
10415;DHT22;5254;47.696;9.138;2022-08-19T08:42:34;19.00;99.90
10415;DHT22;5254;47.696;9.138;2022-08-19T08:45:14;19.00;99.90
10415;DHT22;5254;47.696;9.138;2022-08-19T08:47:45;19.00;99.90
10415;DHT22;5254;47.696;9.138;2022-08-19T08:50:20;19.00;99.90
10415;DHT22;5254;47.696;9.138;2022-08-19T08:52:51;19.00;99.90
10415;DHT22;5254;47.696;9.138;2022-08-19T08:55:21;19.00;99.90
10415;DHT22;5254;47.696;9.138;2022-08-19T09:00:36;18.90;99.90
10415;DHT22;5254;47.696;9.138;2022-08-19T09:03:03;18.90;99.90
10415;DHT22;5254;47.696;9.138;2022-08-19T09:05:42;18.90;99.90
10415;DHT22;5254;47.696;9.138;2022-08-19T09:08:38;18.90;99.90
10415;DHT22;5254;47.696;9.138;2022-08-19T09:11:11;19.00;99.90
10415;DHT22;5254;47.696;9.138;2022-08-19T09:14:02;18.90;99.90
10415;DHT22;5254;47.696;9.138;2022-08-19T09:16:30;19.00;99.90
10415;DHT22;5254;47.696;9.138;2022-08-19T09:18:58;18.90;99.90
10415;DHT22;5254;47.696;9.138;2022-08-19T09:21:26;18.90;99.90
10415;DHT22;5254;47.696;9.138;2022-08-19T09:23:53;18.90;99.90
10415;DHT22;5254;47.696;9.138;2022-08-19T09:26:21;18.90;99.90
10415;DHT22;5254;47.696;9.138;2022-08-19T09:28:48;18.90;99.90
10415;DHT22;5254;47.696;9.138;2022-08-19T09:31:26;18.90;99.90
10415;DHT22;5254;47.696;9.138;2022-08-19T09:33:52;18.90;99.90
10415;DHT22;5254;47.696;9.138;2022-08-19T09:36:23;18.90;99.90
10415;DHT22;5254;47.696;9.138;2022-08-19T09:38:51;18.90;99.90
10415;DHT22;5254;47.696;9.138;2022-08-19T09:41:22;18.90;99.90
10415;DHT22;5254;47.696;9.138;2022-08-19T09:43:50;18.90;99.90
10415;DHT22;5254;47.696;9.138;2022-08-19T09:46:22;18.90;99.90
10415;DHT22;5254;47.696;9.138;2022-08-19T09:48:48;18.90;99.90
10415;DHT22;5254;47.696;9.138;2022-08-19T09:51:19;18.90;99.90
10415;DHT22;5254;47.696;9.138;2022-08-19T09:53:47;18.80;99.90
10415;DHT22;5254;47.696;9.138;2022-08-19T09:56:17;18.80;99.90
10415;DHT22;5254;47.696;9.138;2022-08-19T09:58:43;18.80;99.90
10415;DHT22;5254;47.696;9.138;2022-08-19T10:01:14;18.80;99.90
10415;DHT22;5254;47.696;9.138;2022-08-19T10:03:40;18.80;99.90
10415;DHT22;5254;47.696;9.138;2022-08-19T10:06:06;18.80;99.90
10415;DHT22;5254;47.696;9.138;2022-08-19T10:08:34;18.80;99.90
10415;DHT22;5254;47.696;9.138;2022-08-19T10:11:01;18.80;99.90
10415;DHT22;5254;47.696;9.138;2022-08-19T10:13:30;18.80;99.90
10415;DHT22;5254;47.696;9.138;2022-08-19T10:16:04;18.70;99.90
10415;DHT22;5254;47.696;9.138;2022-08-19T10:18:30;18.70;99.90
10415;DHT22;5254;47.696;9.138;2022-08-19T10:21:10;18.60;99.90
10415;DHT22;5254;47.696;9.138;2022-08-19T10:23:38;18.70;99.90
10415;DHT22;5254;47.696;9.138;2022-08-19T10:26:05;18.70;99.90
10415;DHT22;5254;47.696;9.138;2022-08-19T10:28:33;18.60;99.90
10415;DHT22;5254;47.696;9.138;2022-08-19T10:31:07;18.60;99.90
10415;DHT22;5254;47.696;9.138;2022-08-19T10:33:34;18.60;99.90
10415;DHT22;5254;47.696;9.138;2022-08-19T10:36:06;18.60;99.90
10415;DHT22;5254;47.696;9.138;2022-08-19T10:38:32;18.60;99.90
10415;DHT22;5254;47.696;9.138;2022-08-19T10:41:13;18.60;99.90
10415;DHT22;5254;47.696;9.138;2022-08-19T10:43:41;18.60;99.90
10415;DHT22;5254;47.696;9.138;2022-08-19T10:46:12;18.60;99.90
10415;DHT22;5254;47.696;9.138;2022-08-19T10:48:37;18.60;99.90
10415;DHT22;5254;47.696;9.138;2022-08-19T10:51:04;18.60;99.90
10415;DHT22;5254;47.696;9.138;2022-08-19T10:53:49;18.60;99.90
10415;DHT22;5254;47.696;9.138;2022-08-19T10:56:16;18.60;99.90
10415;DHT22;5254;47.696;9.138;2022-08-19T10:59:00;18.60;99.90
10415;DHT22;5254;47.696;9.138;2022-08-19T11:01:29;18.60;99.90
10415;DHT22;5254;47.696;9.138;2022-08-19T11:03:56;18.60;99.90
10415;DHT22;5254;47.696;9.138;2022-08-19T11:06:23;18.60;99.90
10415;DHT22;5254;47.696;9.138;2022-08-19T11:08:51;18.60;99.90
10415;DHT22;5254;47.696;9.138;2022-08-19T11:11:17;18.50;99.90
10415;DHT22;5254;47.696;9.138;2022-08-19T11:13:43;18.40;99.90
10415;DHT22;5254;47.696;9.138;2022-08-19T11:16:17;18.40;99.90
10415;DHT22;5254;47.696;9.138;2022-08-19T11:18:50;18.40;99.90
10415;DHT22;5254;47.696;9.138;2022-08-19T11:21:20;18.30;99.90
10415;DHT22;5254;47.696;9.138;2022-08-19T11:23:49;18.30;99.90
10415;DHT22;5254;47.696;9.138;2022-08-19T11:26:17;18.30;99.90
10415;DHT22;5254;47.696;9.138;2022-08-19T11:28:44;18.20;99.90
10415;DHT22;5254;47.696;9.138;2022-08-19T11:31:16;18.20;99.90
10415;DHT22;5254;47.696;9.138;2022-08-19T11:33:43;18.20;99.90
10415;DHT22;5254;47.696;9.138;2022-08-19T11:36:09;18.20;99.90
10415;DHT22;5254;47.696;9.138;2022-08-19T11:38:36;18.10;99.90
10415;DHT22;5254;47.696;9.138;2022-08-19T11:41:05;18.20;99.90
10415;DHT22;5254;47.696;9.138;2022-08-19T11:43:31;18.10;99.90
10415;DHT22;5254;47.696;9.138;2022-08-19T11:45:57;18.20;99.90
10415;DHT22;5254;47.696;9.138;2022-08-19T11:48:24;18.20;99.90
10415;DHT22;5254;47.696;9.138;2022-08-19T11:50:51;18.10;99.90
10415;DHT22;5254;47.696;9.138;2022-08-19T11:53:18;18.10;99.90
10415;DHT22;5254;47.696;9.138;2022-08-19T11:55:46;18.10;99.90
10415;DHT22;5254;47.696;9.138;2022-08-19T11:58:13;18.00;99.90
10415;DHT22;5254;47.696;9.138;2022-08-19T12:00:41;18.00;99.90
10415;DHT22;5254;47.696;9.138;2022-08-19T12:03:07;18.00;99.90
10415;DHT22;5254;47.696;9.138;2022-08-19T12:05:35;17.90;99.90
10415;DHT22;5254;47.696;9.138;2022-08-19T12:08:01;17.90;99.90
10415;DHT22;5254;47.696;9.138;2022-08-19T12:10:27;17.90;99.90
10415;DHT22;5254;47.696;9.138;2022-08-19T12:12:53;17.90;99.90
10415;DHT22;5254;47.696;9.138;2022-08-19T12:15:18;17.90;99.90
10415;DHT22;5254;47.696;9.138;2022-08-19T12:17:44;17.90;99.90
10415;DHT22;5254;47.696;9.138;2022-08-19T12:20:11;18.00;99.90
10415;DHT22;5254;47.696;9.138;2022-08-19T12:22:37;18.00;99.90
10415;DHT22;5254;47.696;9.138;2022-08-19T12:25:04;18.00;99.90
10415;DHT22;5254;47.696;9.138;2022-08-19T12:27:30;18.00;99.90
10415;DHT22;5254;47.696;9.138;2022-08-19T12:29:56;18.00;99.90
10415;DHT22;5254;47.696;9.138;2022-08-19T12:32:23;18.10;99.90
10415;DHT22;5254;47.696;9.138;2022-08-19T12:34:50;18.10;99.90
10415;DHT22;5254;47.696;9.138;2022-08-19T12:37:16;18.10;99.90
10415;DHT22;5254;47.696;9.138;2022-08-19T12:39:43;18.20;99.90
10415;DHT22;5254;47.696;9.138;2022-08-19T12:42:10;18.20;99.90
10415;DHT22;5254;47.696;9.138;2022-08-19T12:44:39;18.20;99.90
10415;DHT22;5254;47.696;9.138;2022-08-19T12:47:05;18.20;99.90
10415;DHT22;5254;47.696;9.138;2022-08-19T12:49:32;18.20;99.90
10415;DHT22;5254;47.696;9.138;2022-08-19T12:52:00;18.20;99.90
10415;DHT22;5254;47.696;9.138;2022-08-19T12:54:27;18.20;99.90
10415;DHT22;5254;47.696;9.138;2022-08-19T12:56:52;18.30;99.90
10415;DHT22;5254;47.696;9.138;2022-08-19T12:59:19;18.30;99.90
10415;DHT22;5254;47.696;9.138;2022-08-19T13:01:45;18.40;99.90
10415;DHT22;5254;47.696;9.138;2022-08-19T13:04:11;18.40;99.90
10415;DHT22;5254;47.696;9.138;2022-08-19T13:06:37;18.40;99.90
10415;DHT22;5254;47.696;9.138;2022-08-19T13:09:04;18.50;99.90
10415;DHT22;5254;47.696;9.138;2022-08-19T13:11:30;18.50;99.90
10415;DHT22;5254;47.696;9.138;2022-08-19T13:13:59;18.50;99.90
10415;DHT22;5254;47.696;9.138;2022-08-19T13:16:25;18.50;99.90
10415;DHT22;5254;47.696;9.138;2022-08-19T13:18:53;18.60;99.90
10415;DHT22;5254;47.696;9.138;2022-08-19T13:21:22;18.60;99.90
10415;DHT22;5254;47.696;9.138;2022-08-19T13:23:49;18.60;99.90
10415;DHT22;5254;47.696;9.138;2022-08-19T13:26:15;18.60;99.90
10415;DHT22;5254;47.696;9.138;2022-08-19T13:28:42;18.70;99.90
10415;DHT22;5254;47.696;9.138;2022-08-19T13:31:30;18.70;99.90
10415;DHT22;5254;47.696;9.138;2022-08-19T13:34:16;18.70;99.90
10415;DHT22;5254;47.696;9.138;2022-08-19T13:36:42;18.80;99.90
10415;DHT22;5254;47.696;9.138;2022-08-19T13:39:09;18.80;99.90
10415;DHT22;5254;47.696;9.138;2022-08-19T13:41:35;18.80;99.90
10415;DHT22;5254;47.696;9.138;2022-08-19T13:44:02;18.90;99.90
10415;DHT22;5254;47.696;9.138;2022-08-19T13:46:28;18.90;99.90
10415;DHT22;5254;47.696;9.138;2022-08-19T13:48:55;18.90;99.90
10415;DHT22;5254;47.696;9.138;2022-08-19T13:51:22;18.90;99.90
10415;DHT22;5254;47.696;9.138;2022-08-19T13:53:48;19.00;99.90
10415;DHT22;5254;47.696;9.138;2022-08-19T13:56:19;19.00;99.90
10415;DHT22;5254;47.696;9.138;2022-08-19T13:58:47;19.00;99.90
10415;DHT22;5254;47.696;9.138;2022-08-19T14:01:19;19.00;99.90
10415;DHT22;5254;47.696;9.138;2022-08-19T14:03:45;19.00;99.90
10415;DHT22;5254;47.696;9.138;2022-08-19T14:06:11;19.00;99.90
10415;DHT22;5254;47.696;9.138;2022-08-19T14:08:36;19.00;99.90
10415;DHT22;5254;47.696;9.138;2022-08-19T14:11:05;19.00;99.90
10415;DHT22;5254;47.696;9.138;2022-08-19T14:13:30;19.00;99.90
10415;DHT22;5254;47.696;9.138;2022-08-19T14:15:59;19.00;99.90
10415;DHT22;5254;47.696;9.138;2022-08-19T14:18:24;19.00;99.90
10415;DHT22;5254;47.696;9.138;2022-08-19T14:20:51;19.00;99.90
10415;DHT22;5254;47.696;9.138;2022-08-19T14:23:16;19.00;99.90
10415;DHT22;5254;47.696;9.138;2022-08-19T14:25:42;19.00;99.90
10415;DHT22;5254;47.696;9.138;2022-08-19T14:28:08;19.00;99.90
10415;DHT22;5254;47.696;9.138;2022-08-19T14:30:35;19.00;99.90
10415;DHT22;5254;47.696;9.138;2022-08-19T14:33:03;19.00;99.90
10415;DHT22;5254;47.696;9.138;2022-08-19T14:35:32;19.00;99.90
10415;DHT22;5254;47.696;9.138;2022-08-19T14:38:05;19.00;99.90
10415;DHT22;5254;47.696;9.138;2022-08-19T14:40:32;19.00;99.90
10415;DHT22;5254;47.696;9.138;2022-08-19T14:43:01;19.00;99.90
10415;DHT22;5254;47.696;9.138;2022-08-19T14:45:31;19.00;99.90
10415;DHT22;5254;47.696;9.138;2022-08-19T14:47:57;19.00;99.90
10415;DHT22;5254;47.696;9.138;2022-08-19T14:50:24;19.10;99.90
10415;DHT22;5254;47.696;9.138;2022-08-19T14:52:58;19.10;99.90
10415;DHT22;5254;47.696;9.138;2022-08-19T14:55:24;19.10;99.90
10415;DHT22;5254;47.696;9.138;2022-08-19T14:57:49;19.10;99.90
10415;DHT22;5254;47.696;9.138;2022-08-19T15:00:15;19.20;99.90
10415;DHT22;5254;47.696;9.138;2022-08-19T15:02:42;19.20;99.90
10415;DHT22;5254;47.696;9.138;2022-08-19T15:05:09;19.20;99.90
10415;DHT22;5254;47.696;9.138;2022-08-19T15:07:36;19.20;99.90
10415;DHT22;5254;47.696;9.138;2022-08-19T15:10:03;19.30;99.90
10415;DHT22;5254;47.696;9.138;2022-08-19T15:12:29;19.30;99.90
10415;DHT22;5254;47.696;9.138;2022-08-19T15:14:55;19.30;99.90
10415;DHT22;5254;47.696;9.138;2022-08-19T15:17:21;19.30;99.90
10415;DHT22;5254;47.696;9.138;2022-08-19T15:19:47;19.30;99.90
10415;DHT22;5254;47.696;9.138;2022-08-19T15:22:12;19.30;99.90
10415;DHT22;5254;47.696;9.138;2022-08-19T15:24:38;19.30;99.90
10415;DHT22;5254;47.696;9.138;2022-08-19T15:27:04;19.30;99.90
10415;DHT22;5254;47.696;9.138;2022-08-19T15:29:31;19.30;99.90
10415;DHT22;5254;47.696;9.138;2022-08-19T15:31:58;19.30;99.90
10415;DHT22;5254;47.696;9.138;2022-08-19T15:34:24;19.30;99.90
10415;DHT22;5254;47.696;9.138;2022-08-19T15:36:51;19.30;99.90
10415;DHT22;5254;47.696;9.138;2022-08-19T15:39:18;19.30;99.90
10415;DHT22;5254;47.696;9.138;2022-08-19T15:41:45;19.30;99.90
10415;DHT22;5254;47.696;9.138;2022-08-19T15:44:14;19.30;99.90
10415;DHT22;5254;47.696;9.138;2022-08-19T15:46:41;19.30;99.90
10415;DHT22;5254;47.696;9.138;2022-08-19T15:49:09;19.30;99.90
10415;DHT22;5254;47.696;9.138;2022-08-19T15:51:36;19.30;99.90
10415;DHT22;5254;47.696;9.138;2022-08-19T15:54:05;19.30;99.90
10415;DHT22;5254;47.696;9.138;2022-08-19T15:56:31;19.30;99.90
10415;DHT22;5254;47.696;9.138;2022-08-19T15:59:16;19.30;99.90
10415;DHT22;5254;47.696;9.138;2022-08-19T16:02:00;19.30;99.90